UAL2214 KEGE-KIAH
Flight info
| Callsign | UAL2214 |
|---|---|
| Flight time | 2h 5m |
| Altitude | 37000 |
| Route | GYPSM6 RLG COORZ BRK KA39Y OVSAW KF27A MQP GUSHR3 |
| Aircraft | B739/M-SDE2E3FGHIRWXY/LB1 |
Departure
| Time | 2026-05-01 12:28 |
|---|---|
| Airport | Eagle County Regional Airport (KEGE) |
Arrival
| Time | 2026-05-01 14:34 |
|---|---|
| Airport | George Bush Intercontinental Airport (KIAH) |
| Time | Latitude | Longitude | Altitude | Speed | Heading |
|---|---|---|---|---|---|
| 2026-05-01 11:03 | 39.64065 | -106.91483 | 6526 ft | 0 kts | 172° |
| 2026-05-01 11:07 | 39.64066 | -106.91483 | 6527 ft | 0 kts | 172° |
| 2026-05-01 12:12 | 39.64067 | -106.91484 | 6526 ft | 2 kts | 172° |
| 2026-05-01 12:12 | 39.64085 | -106.91478 | 6527 ft | 4 kts | 228° |
| 2026-05-01 12:12 | 39.64099 | -106.91461 | 6526 ft | 1 kts | 210° |
| 2026-05-01 12:13 | 39.64102 | -106.91459 | 6526 ft | 0 kts | 210° |
| 2026-05-01 12:15 | 39.64088 | -106.91490 | 6526 ft | 7 kts | 257° |
| 2026-05-01 12:15 | 39.64113 | -106.91553 | 6526 ft | 8 kts | 323° |
| 2026-05-01 12:15 | 39.64167 | -106.91544 | 6524 ft | 10 kts | 46° |
| 2026-05-01 12:16 | 39.64184 | -106.91451 | 6526 ft | 11 kts | 82° |
| 2026-05-01 12:16 | 39.64195 | -106.91338 | 6528 ft | 15 kts | 82° |
| 2026-05-01 12:16 | 39.64211 | -106.91198 | 6533 ft | 15 kts | 81° |
| 2026-05-01 12:16 | 39.64227 | -106.91058 | 6532 ft | 17 kts | 81° |
| 2026-05-01 12:17 | 39.64244 | -106.90908 | 6537 ft | 17 kts | 82° |
| 2026-05-01 12:17 | 39.64258 | -106.90762 | 6540 ft | 17 kts | 82° |
| 2026-05-01 12:17 | 39.64278 | -106.90599 | 6539 ft | 20 kts | 81° |
| 2026-05-01 12:17 | 39.64293 | -106.90457 | 6542 ft | 11 kts | 82° |
| 2026-05-01 12:18 | 39.64292 | -106.90382 | 6545 ft | 7 kts | 116° |
| 2026-05-01 12:18 | 39.64255 | -106.90343 | 6547 ft | 7 kts | 128° |
| 2026-05-01 12:18 | 39.64250 | -106.90277 | 6549 ft | 8 kts | 84° |
| 2026-05-01 12:18 | 39.64260 | -106.90193 | 6549 ft | 11 kts | 81° |
| 2026-05-01 12:19 | 39.64274 | -106.90156 | 6550 ft | 0 kts | 32° |
| 2026-05-01 12:25 | 39.64280 | -106.90151 | 6550 ft | 3 kts | 29° |
| 2026-05-01 12:25 | 39.64310 | -106.90133 | 6550 ft | 6 kts | 35° |
| 2026-05-01 12:26 | 39.64331 | -106.90089 | 6550 ft | 6 kts | 72° |
| 2026-05-01 12:26 | 39.64377 | -106.90016 | 6551 ft | 6 kts | 4° |
| 2026-05-01 12:26 | 39.64417 | -106.90023 | 6551 ft | 6 kts | 350° |
| 2026-05-01 12:27 | 39.64446 | -106.90055 | 6551 ft | 6 kts | 283° |
| 2026-05-01 12:27 | 39.64440 | -106.90111 | 6550 ft | 0 kts | 262° |
| 2026-05-01 12:28 | 39.64404 | -106.90428 | 6546 ft | 74 kts | 262° |
| 2026-05-01 12:28 | 39.64298 | -106.91396 | 6524 ft | 141 kts | 262° |
| 2026-05-01 12:28 | 39.63930 | -106.94547 | 7228 ft | 190 kts | 250° |
| 2026-05-01 12:29 | 39.63156 | -106.95960 | 7854 ft | 203 kts | 214° |
| 2026-05-01 12:29 | 39.61896 | -106.96831 | 8404 ft | 212 kts | 205° |
| 2026-05-01 12:29 | 39.59002 | -106.98230 | 9315 ft | 229 kts | 213° |
| 2026-05-01 12:30 | 39.57495 | -107.01960 | 10005 ft | 260 kts | 276° |
| 2026-05-01 12:30 | 39.57701 | -107.04325 | 10622 ft | 267 kts | 277° |
| 2026-05-01 12:30 | 39.58231 | -107.06605 | 11351 ft | 266 kts | 307° |
| 2026-05-01 12:31 | 39.59569 | -107.08221 | 12132 ft | 264 kts | 322° |
| 2026-05-01 12:31 | 39.60975 | -107.09779 | 12849 ft | 268 kts | 320° |
| 2026-05-01 12:31 | 39.62586 | -107.10970 | 13549 ft | 270 kts | 348° |
| 2026-05-01 12:31 | 39.64450 | -107.11015 | 14274 ft | 269 kts | 10° |
| 2026-05-01 12:32 | 39.66282 | -107.10519 | 14962 ft | 270 kts | 13° |
| 2026-05-01 12:32 | 39.70003 | -107.09455 | 16244 ft | 276 kts | 12° |
| 2026-05-01 12:32 | 39.71882 | -107.08846 | 16890 ft | 280 kts | 23° |
| 2026-05-01 12:33 | 39.73470 | -107.07371 | 17442 ft | 289 kts | 47° |
| 2026-05-01 12:33 | 39.74601 | -107.05090 | 17600 ft | 312 kts | 62° |
| 2026-05-01 12:33 | 39.75597 | -107.02488 | 17775 ft | 332 kts | 63° |
| 2026-05-01 12:33 | 39.76651 | -106.99714 | 17932 ft | 352 kts | 62° |
| 2026-05-01 12:34 | 39.77779 | -106.96805 | 18195 ft | 367 kts | 62° |
| 2026-05-01 12:34 | 39.78953 | -106.93821 | 18719 ft | 373 kts | 62° |
| 2026-05-01 12:34 | 39.80142 | -106.90811 | 19333 ft | 375 kts | 62° |
| 2026-05-01 12:34 | 39.81321 | -106.87823 | 19935 ft | 378 kts | 62° |
| 2026-05-01 12:35 | 39.82527 | -106.84768 | 20494 ft | 382 kts | 62° |
| 2026-05-01 12:35 | 39.83759 | -106.81640 | 21074 ft | 385 kts | 62° |
| 2026-05-01 12:35 | 39.84970 | -106.78561 | 21647 ft | 389 kts | 62° |
| 2026-05-01 12:35 | 39.86207 | -106.75415 | 22214 ft | 393 kts | 62° |
| 2026-05-01 12:36 | 39.87457 | -106.72233 | 22779 ft | 396 kts | 61° |
| 2026-05-01 12:36 | 39.88564 | -106.68936 | 23299 ft | 402 kts | 74° |
| 2026-05-01 12:36 | 39.88905 | -106.65292 | 23810 ft | 408 kts | 85° |
| 2026-05-01 12:36 | 39.89073 | -106.61592 | 24244 ft | 412 kts | 85° |
| 2026-05-01 12:37 | 39.89256 | -106.57850 | 24659 ft | 416 kts | 85° |
| 2026-05-01 12:37 | 39.89388 | -106.55305 | 24943 ft | 419 kts | 84° |
| 2026-05-01 12:37 | 39.89595 | -106.51505 | 25352 ft | 423 kts | 84° |
| 2026-05-01 12:37 | 39.89881 | -106.46424 | 25918 ft | 427 kts | 84° |
| 2026-05-01 12:38 | 39.90027 | -106.43858 | 26186 ft | 430 kts | 84° |
| 2026-05-01 12:38 | 39.90249 | -106.39960 | 26590 ft | 434 kts | 84° |
| 2026-05-01 12:38 | 39.90471 | -106.36027 | 26993 ft | 437 kts | 84° |
| 2026-05-01 12:38 | 39.90693 | -106.32062 | 27403 ft | 441 kts | 84° |
| 2026-05-01 12:39 | 39.90916 | -106.28072 | 27836 ft | 443 kts | 84° |
| 2026-05-01 12:39 | 39.91137 | -106.24051 | 28219 ft | 447 kts | 85° |
| 2026-05-01 12:39 | 39.91129 | -106.19984 | 28553 ft | 452 kts | 94° |
| 2026-05-01 12:39 | 39.90747 | -106.15908 | 28945 ft | 455 kts | 97° |
| 2026-05-01 12:40 | 39.90267 | -106.11812 | 29308 ft | 459 kts | 98° |
| 2026-05-01 12:40 | 39.89776 | -106.07694 | 29673 ft | 462 kts | 99° |
| 2026-05-01 12:40 | 39.88994 | -106.03624 | 29968 ft | 467 kts | 110° |
| 2026-05-01 12:40 | 39.87582 | -105.99812 | 30255 ft | 469 kts | 122° |
| 2026-05-01 12:41 | 39.85675 | -105.96361 | 30554 ft | 470 kts | 132° |
| 2026-05-01 12:41 | 39.83502 | -105.93163 | 30815 ft | 473 kts | 133° |
| 2026-05-01 12:41 | 39.81302 | -105.89965 | 31029 ft | 477 kts | 134° |
| 2026-05-01 12:41 | 39.79081 | -105.86732 | 31204 ft | 481 kts | 134° |
| 2026-05-01 12:42 | 39.76851 | -105.83466 | 31394 ft | 486 kts | 134° |
| 2026-05-01 12:42 | 39.74612 | -105.80166 | 31711 ft | 487 kts | 134° |
| 2026-05-01 12:42 | 39.72382 | -105.76864 | 32101 ft | 486 kts | 134° |
| 2026-05-01 12:42 | 39.70154 | -105.73558 | 32412 ft | 487 kts | 134° |
| 2026-05-01 12:43 | 39.67921 | -105.70244 | 32665 ft | 489 kts | 135° |
| 2026-05-01 12:43 | 39.65677 | -105.66918 | 32957 ft | 490 kts | 135° |
| 2026-05-01 12:43 | 39.63431 | -105.63593 | 33318 ft | 490 kts | 135° |
| 2026-05-01 12:43 | 39.61181 | -105.60265 | 33644 ft | 491 kts | 135° |
| 2026-05-01 12:44 | 39.58927 | -105.56935 | 33905 ft | 492 kts | 135° |
| 2026-05-01 12:44 | 39.56662 | -105.53597 | 34154 ft | 493 kts | 136° |
| 2026-05-01 12:44 | 39.52130 | -105.46926 | 34736 ft | 493 kts | 135° |
| 2026-05-01 12:45 | 39.47607 | -105.40279 | 35326 ft | 491 kts | 135° |
| 2026-05-01 12:45 | 39.45342 | -105.36957 | 35568 ft | 492 kts | 135° |
| 2026-05-01 12:45 | 39.43078 | -105.33641 | 35772 ft | 493 kts | 136° |
| 2026-05-01 12:46 | 39.40804 | -105.30314 | 35953 ft | 495 kts | 136° |
| 2026-05-01 12:46 | 39.38526 | -105.26985 | 36213 ft | 494 kts | 136° |
| 2026-05-01 12:46 | 39.36250 | -105.23660 | 36504 ft | 493 kts | 136° |
| 2026-05-01 12:46 | 39.33979 | -105.20345 | 36789 ft | 492 kts | 136° |
| 2026-05-01 12:47 | 39.31712 | -105.17041 | 37030 ft | 492 kts | 136° |
| 2026-05-01 12:47 | 39.29439 | -105.13732 | 37280 ft | 492 kts | 136° |
| 2026-05-01 12:47 | 39.27175 | -105.10440 | 37562 ft | 491 kts | 136° |
| 2026-05-01 12:47 | 39.24911 | -105.07151 | 37829 ft | 489 kts | 136° |
| 2026-05-01 12:48 | 39.22654 | -105.03876 | 38105 ft | 488 kts | 136° |
| 2026-05-01 12:48 | 39.20430 | -105.00651 | 38327 ft | 487 kts | 136° |
| 2026-05-01 12:48 | 39.18177 | -104.97388 | 38492 ft | 487 kts | 136° |
| 2026-05-01 12:48 | 39.15922 | -104.94128 | 38649 ft | 487 kts | 136° |
| 2026-05-01 12:49 | 39.13638 | -104.90828 | 38835 ft | 487 kts | 136° |
| 2026-05-01 12:49 | 39.11410 | -104.87611 | 38930 ft | 489 kts | 136° |
| 2026-05-01 12:49 | 39.09145 | -104.84346 | 39037 ft | 489 kts | 136° |
| 2026-05-01 12:49 | 39.06880 | -104.81083 | 39152 ft | 489 kts | 136° |
| 2026-05-01 12:50 | 39.02340 | -104.74550 | 39185 ft | 489 kts | 136° |
| 2026-05-01 12:50 | 38.97810 | -104.68044 | 39217 ft | 488 kts | 136° |
| 2026-05-01 12:51 | 38.93221 | -104.61668 | 39218 ft | 483 kts | 142° |
| 2026-05-01 12:52 | 38.85683 | -104.53206 | 39212 ft | 478 kts | 145° |
| 2026-05-01 12:52 | 38.78105 | -104.44881 | 39231 ft | 478 kts | 144° |
| 2026-05-01 12:53 | 38.70569 | -104.36476 | 39243 ft | 480 kts | 144° |
| 2026-05-01 12:54 | 38.65536 | -104.30855 | 39231 ft | 481 kts | 144° |
| 2026-05-01 12:54 | 38.57963 | -104.22424 | 39239 ft | 482 kts | 144° |
| 2026-05-01 12:55 | 38.50348 | -104.13974 | 39219 ft | 484 kts | 144° |
| 2026-05-01 12:56 | 38.45257 | -104.08338 | 39210 ft | 485 kts | 145° |
| 2026-05-01 12:56 | 38.40157 | -104.02703 | 39208 ft | 485 kts | 145° |
| 2026-05-01 12:57 | 38.35080 | -103.97105 | 39205 ft | 486 kts | 145° |
| 2026-05-01 12:57 | 38.27401 | -103.88657 | 39181 ft | 487 kts | 145° |
| 2026-05-01 12:58 | 38.22271 | -103.83028 | 39203 ft | 487 kts | 145° |
| 2026-05-01 12:59 | 38.14563 | -103.74590 | 39209 ft | 488 kts | 145° |
| 2026-05-01 12:59 | 38.06847 | -103.66167 | 39188 ft | 487 kts | 145° |
| 2026-05-01 13:00 | 37.99133 | -103.57771 | 39207 ft | 487 kts | 145° |
| 2026-05-01 13:01 | 37.91415 | -103.49395 | 39197 ft | 487 kts | 145° |
| 2026-05-01 13:02 | 37.83689 | -103.41034 | 39177 ft | 487 kts | 146° |
| 2026-05-01 13:07 | 37.27099 | -102.80512 | 39151 ft | 484 kts | 146° |
| 2026-05-01 13:08 | 37.21952 | -102.75068 | 39147 ft | 484 kts | 146° |
| 2026-05-01 13:08 | 37.16800 | -102.69630 | 39147 ft | 484 kts | 146° |
| 2026-05-01 13:09 | 37.11652 | -102.64206 | 39144 ft | 484 kts | 147° |
| 2026-05-01 13:09 | 37.06501 | -102.58788 | 39149 ft | 483 kts | 147° |
| 2026-05-01 13:10 | 37.01355 | -102.53386 | 39145 ft | 483 kts | 147° |
| 2026-05-01 13:10 | 36.96203 | -102.47988 | 39149 ft | 484 kts | 147° |
| 2026-05-01 13:11 | 36.91036 | -102.42584 | 39141 ft | 484 kts | 147° |
| 2026-05-01 13:11 | 36.85872 | -102.37192 | 39136 ft | 483 kts | 147° |
| 2026-05-01 13:12 | 36.80727 | -102.31828 | 39134 ft | 481 kts | 146° |
| 2026-05-01 13:12 | 36.75600 | -102.26493 | 39134 ft | 479 kts | 147° |
| 2026-05-01 13:13 | 36.70488 | -102.21185 | 39136 ft | 478 kts | 147° |
| 2026-05-01 13:13 | 36.65381 | -102.15892 | 39138 ft | 477 kts | 147° |
| 2026-05-01 13:14 | 36.60318 | -102.10652 | 39110 ft | 476 kts | 146° |
| 2026-05-01 13:14 | 36.55192 | -102.05356 | 39127 ft | 476 kts | 146° |
| 2026-05-01 13:15 | 36.50138 | -102.00144 | 39138 ft | 475 kts | 146° |
| 2026-05-01 13:15 | 36.45138 | -101.94746 | 39131 ft | 477 kts | 144° |
| 2026-05-01 13:16 | 36.40218 | -101.89220 | 39133 ft | 477 kts | 144° |
| 2026-05-01 13:16 | 36.35296 | -101.83716 | 39131 ft | 476 kts | 144° |
| 2026-05-01 13:17 | 36.28562 | -101.76265 | 39133 ft | 475 kts | 144° |
| 2026-05-01 13:18 | 36.21150 | -101.68103 | 39135 ft | 475 kts | 144° |
| 2026-05-01 13:18 | 36.16203 | -101.62666 | 39119 ft | 475 kts | 144° |
| 2026-05-01 13:19 | 36.11261 | -101.57244 | 39132 ft | 475 kts | 144° |
| 2026-05-01 13:20 | 36.03839 | -101.49117 | 39136 ft | 475 kts | 144° |
| 2026-05-01 13:20 | 35.98885 | -101.43704 | 39144 ft | 476 kts | 144° |
| 2026-05-01 13:21 | 35.91440 | -101.35587 | 39140 ft | 476 kts | 145° |
| 2026-05-01 13:21 | 35.86476 | -101.30188 | 39139 ft | 476 kts | 145° |
| 2026-05-01 13:22 | 35.81515 | -101.24798 | 39155 ft | 475 kts | 145° |
| 2026-05-01 13:22 | 35.76552 | -101.19416 | 39161 ft | 475 kts | 145° |
| 2026-05-01 13:23 | 35.71476 | -101.14280 | 39158 ft | 470 kts | 150° |
| 2026-05-01 13:23 | 35.66313 | -101.09397 | 39183 ft | 467 kts | 150° |
| 2026-05-01 13:24 | 35.62037 | -101.05365 | 39187 ft | 465 kts | 150° |
| 2026-05-01 13:25 | 35.54389 | -100.98086 | 39186 ft | 462 kts | 150° |
| 2026-05-01 13:25 | 35.49326 | -100.93252 | 39181 ft | 460 kts | 150° |
| 2026-05-01 13:26 | 35.44314 | -100.88474 | 39174 ft | 459 kts | 150° |
| 2026-05-01 13:26 | 35.39270 | -100.83676 | 39160 ft | 459 kts | 150° |
| 2026-05-01 13:27 | 35.34229 | -100.78889 | 39147 ft | 459 kts | 150° |
| 2026-05-01 13:27 | 35.26632 | -100.71690 | 39116 ft | 462 kts | 151° |
| 2026-05-01 13:28 | 35.19002 | -100.64474 | 39133 ft | 463 kts | 151° |
| 2026-05-01 13:29 | 35.08787 | -100.54841 | 39132 ft | 464 kts | 152° |
| 2026-05-01 13:31 | 34.93614 | -100.40578 | 39123 ft | 451 kts | 152° |
| 2026-05-01 13:32 | 34.81202 | -100.28985 | 39125 ft | 450 kts | 152° |
| 2026-05-01 13:33 | 34.68745 | -100.17382 | 39116 ft | 452 kts | 153° |
| 2026-05-01 13:34 | 34.58712 | -100.08068 | 39111 ft | 455 kts | 153° |
| 2026-05-01 13:35 | 34.51171 | -100.01084 | 39098 ft | 455 kts | 154° |
| 2026-05-01 13:36 | 34.44045 | -99.93328 | 39115 ft | 465 kts | 146° |
| 2026-05-01 13:36 | 34.37096 | -99.85075 | 39100 ft | 464 kts | 147° |
| 2026-05-01 13:37 | 34.32495 | -99.79700 | 39061 ft | 462 kts | 148° |
| 2026-05-01 13:37 | 34.27867 | -99.74346 | 39082 ft | 460 kts | 148° |
| 2026-05-01 13:38 | 34.20939 | -99.66364 | 39080 ft | 458 kts | 148° |
| 2026-05-01 13:39 | 34.16333 | -99.61066 | 39090 ft | 457 kts | 148° |
| 2026-05-01 13:39 | 34.11730 | -99.55778 | 39077 ft | 456 kts | 148° |
| 2026-05-01 13:40 | 34.07136 | -99.50508 | 39073 ft | 455 kts | 148° |
| 2026-05-01 13:40 | 34.02551 | -99.45255 | 39055 ft | 454 kts | 149° |
| 2026-05-01 13:41 | 33.97969 | -99.40016 | 39069 ft | 454 kts | 149° |
| 2026-05-01 13:41 | 33.93388 | -99.34786 | 39063 ft | 454 kts | 149° |
| 2026-05-01 13:42 | 33.88804 | -99.29561 | 39061 ft | 454 kts | 149° |
| 2026-05-01 13:42 | 33.84213 | -99.24336 | 39050 ft | 454 kts | 149° |
| 2026-05-01 13:43 | 33.79614 | -99.19110 | 39057 ft | 456 kts | 149° |
| 2026-05-01 13:43 | 33.74997 | -99.13873 | 39065 ft | 457 kts | 149° |
| 2026-05-01 13:44 | 33.70363 | -99.08623 | 39049 ft | 458 kts | 149° |
| 2026-05-01 13:44 | 33.65716 | -99.03365 | 39070 ft | 459 kts | 149° |
| 2026-05-01 13:45 | 33.61059 | -98.98104 | 39049 ft | 460 kts | 149° |
| 2026-05-01 13:45 | 33.56395 | -98.92844 | 39067 ft | 461 kts | 149° |
| 2026-05-01 13:46 | 33.51751 | -98.87616 | 39078 ft | 462 kts | 149° |
| 2026-05-01 13:46 | 33.47029 | -98.82307 | 39071 ft | 463 kts | 149° |
| 2026-05-01 13:47 | 33.42367 | -98.77074 | 39075 ft | 463 kts | 149° |
| 2026-05-01 13:47 | 33.37665 | -98.71803 | 39041 ft | 463 kts | 149° |
| 2026-05-01 13:48 | 33.32972 | -98.66549 | 39084 ft | 462 kts | 149° |
| 2026-05-01 13:48 | 33.28278 | -98.61304 | 39096 ft | 462 kts | 149° |
| 2026-05-01 13:49 | 33.23580 | -98.56065 | 39102 ft | 462 kts | 149° |
| 2026-05-01 13:49 | 33.18882 | -98.50833 | 39115 ft | 462 kts | 149° |
| 2026-05-01 13:50 | 33.14178 | -98.45602 | 39114 ft | 462 kts | 149° |
| 2026-05-01 13:50 | 33.09467 | -98.40371 | 39062 ft | 463 kts | 149° |
| 2026-05-01 13:51 | 33.04755 | -98.35146 | 39067 ft | 463 kts | 149° |
| 2026-05-01 13:51 | 33.00043 | -98.29928 | 39056 ft | 462 kts | 149° |
| 2026-05-01 13:52 | 32.95344 | -98.24733 | 39068 ft | 460 kts | 149° |
| 2026-05-01 13:52 | 32.90653 | -98.19555 | 39075 ft | 459 kts | 149° |
| 2026-05-01 13:53 | 32.85978 | -98.14403 | 39077 ft | 457 kts | 149° |
| 2026-05-01 13:53 | 32.78983 | -98.06708 | 39084 ft | 456 kts | 149° |
| 2026-05-01 13:54 | 32.74334 | -98.01604 | 39079 ft | 455 kts | 149° |
| 2026-05-01 13:54 | 32.69771 | -97.96368 | 39073 ft | 459 kts | 145° |
| 2026-05-01 13:55 | 32.65390 | -97.90827 | 39071 ft | 461 kts | 144° |
| 2026-05-01 13:55 | 32.61033 | -97.85269 | 39073 ft | 459 kts | 144° |
| 2026-05-01 13:56 | 32.56651 | -97.79750 | 39081 ft | 459 kts | 144° |
| 2026-05-01 13:56 | 32.52250 | -97.74255 | 39093 ft | 460 kts | 145° |
| 2026-05-01 13:57 | 32.48584 | -97.69695 | 39091 ft | 461 kts | 145° |
| 2026-05-01 13:57 | 32.43437 | -97.63299 | 39078 ft | 462 kts | 144° |
| 2026-05-01 13:58 | 32.38998 | -97.57789 | 39005 ft | 463 kts | 144° |
| 2026-05-01 13:58 | 32.34555 | -97.52279 | 39037 ft | 463 kts | 144° |
| 2026-05-01 13:59 | 32.30109 | -97.46777 | 39016 ft | 463 kts | 144° |
| 2026-05-01 13:59 | 32.25655 | -97.41272 | 39027 ft | 463 kts | 144° |
| 2026-05-01 14:00 | 32.21195 | -97.35769 | 39048 ft | 464 kts | 144° |
| 2026-05-01 14:00 | 32.16725 | -97.30262 | 39054 ft | 465 kts | 144° |
| 2026-05-01 14:01 | 32.12254 | -97.24761 | 39045 ft | 464 kts | 144° |
| 2026-05-01 14:01 | 32.07795 | -97.19281 | 39094 ft | 463 kts | 144° |
| 2026-05-01 14:02 | 32.03337 | -97.13814 | 39097 ft | 462 kts | 144° |
| 2026-05-01 14:02 | 31.98886 | -97.08363 | 39096 ft | 461 kts | 144° |
| 2026-05-01 14:03 | 31.94464 | -97.02956 | 39085 ft | 461 kts | 144° |
| 2026-05-01 14:03 | 31.90018 | -96.97527 | 39062 ft | 460 kts | 144° |
| 2026-05-01 14:04 | 31.85575 | -96.92110 | 39043 ft | 459 kts | 144° |
| 2026-05-01 14:04 | 31.81859 | -96.87585 | 39023 ft | 458 kts | 144° |
| 2026-05-01 14:05 | 31.76717 | -96.81333 | 39023 ft | 455 kts | 143° |
| 2026-05-01 14:05 | 31.72367 | -96.76044 | 39010 ft | 446 kts | 143° |
| 2026-05-01 14:06 | 31.70202 | -96.73420 | 38647 ft | 449 kts | 143° |
| 2026-05-01 14:06 | 31.68028 | -96.70792 | 38059 ft | 448 kts | 143° |
| 2026-05-01 14:06 | 31.65861 | -96.68169 | 37384 ft | 446 kts | 143° |
| 2026-05-01 14:06 | 31.63709 | -96.65563 | 36749 ft | 444 kts | 143° |
| 2026-05-01 14:07 | 31.61561 | -96.62966 | 36047 ft | 444 kts | 142° |
| 2026-05-01 14:07 | 31.59411 | -96.60368 | 35346 ft | 444 kts | 141° |
| 2026-05-01 14:07 | 31.57250 | -96.57761 | 34590 ft | 446 kts | 141° |
| 2026-05-01 14:08 | 31.52898 | -96.52520 | 32933 ft | 450 kts | 142° |
| 2026-05-01 14:08 | 31.50463 | -96.50332 | 32240 ft | 431 kts | 160° |
| 2026-05-01 14:08 | 31.47801 | -96.48823 | 31747 ft | 424 kts | 160° |
| 2026-05-01 14:08 | 31.45176 | -96.47270 | 31218 ft | 420 kts | 159° |
| 2026-05-01 14:09 | 31.42591 | -96.45700 | 30635 ft | 417 kts | 158° |
| 2026-05-01 14:09 | 31.40031 | -96.44128 | 30100 ft | 414 kts | 158° |
| 2026-05-01 14:09 | 31.37487 | -96.42564 | 29472 ft | 411 kts | 158° |
| 2026-05-01 14:09 | 31.34969 | -96.41019 | 28885 ft | 407 kts | 159° |
| 2026-05-01 14:10 | 31.32462 | -96.39485 | 28304 ft | 406 kts | 160° |
| 2026-05-01 14:10 | 31.29992 | -96.37977 | 27768 ft | 406 kts | 160° |
| 2026-05-01 14:10 | 31.27480 | -96.36447 | 27241 ft | 410 kts | 159° |
| 2026-05-01 14:10 | 31.24916 | -96.34888 | 26686 ft | 418 kts | 159° |
| 2026-05-01 14:11 | 31.22334 | -96.33317 | 26138 ft | 418 kts | 159° |
| 2026-05-01 14:11 | 31.17231 | -96.30202 | 25064 ft | 410 kts | 159° |
| 2026-05-01 14:11 | 31.14717 | -96.28670 | 24544 ft | 406 kts | 159° |
| 2026-05-01 14:12 | 31.12227 | -96.27154 | 24010 ft | 402 kts | 159° |
| 2026-05-01 14:12 | 31.09757 | -96.25654 | 23482 ft | 399 kts | 158° |
| 2026-05-01 14:12 | 31.07303 | -96.24163 | 22835 ft | 397 kts | 160° |
| 2026-05-01 14:12 | 31.04859 | -96.22680 | 22276 ft | 394 kts | 160° |
| 2026-05-01 14:13 | 31.02435 | -96.21210 | 21731 ft | 391 kts | 160° |
| 2026-05-01 14:13 | 31.00808 | -96.20223 | 21378 ft | 389 kts | 160° |
| 2026-05-01 14:13 | 30.98424 | -96.18743 | 20858 ft | 387 kts | 158° |
| 2026-05-01 14:13 | 30.95324 | -96.16736 | 20182 ft | 383 kts | 158° |
| 2026-05-01 14:14 | 30.93788 | -96.15734 | 19843 ft | 381 kts | 158° |
| 2026-05-01 14:14 | 30.91480 | -96.14233 | 19381 ft | 378 kts | 157° |
| 2026-05-01 14:14 | 30.89186 | -96.12751 | 18875 ft | 376 kts | 157° |
| 2026-05-01 14:14 | 30.86907 | -96.11284 | 18355 ft | 374 kts | 157° |
| 2026-05-01 14:15 | 30.84639 | -96.09826 | 17777 ft | 371 kts | 157° |
| 2026-05-01 14:15 | 30.82391 | -96.08382 | 17229 ft | 367 kts | 156° |
| 2026-05-01 14:15 | 30.80170 | -96.06956 | 16674 ft | 363 kts | 155° |
| 2026-05-01 14:15 | 30.77963 | -96.05539 | 16161 ft | 360 kts | 155° |
| 2026-05-01 14:16 | 30.75782 | -96.04139 | 15654 ft | 357 kts | 155° |
| 2026-05-01 14:16 | 30.73616 | -96.02749 | 15146 ft | 354 kts | 154° |
| 2026-05-01 14:16 | 30.71461 | -96.01368 | 14635 ft | 352 kts | 154° |
| 2026-05-01 14:16 | 30.69338 | -96.00008 | 14341 ft | 343 kts | 154° |
| 2026-05-01 14:17 | 30.67276 | -95.98686 | 14098 ft | 335 kts | 154° |
| 2026-05-01 14:17 | 30.65251 | -95.97390 | 13859 ft | 331 kts | 154° |
| 2026-05-01 14:17 | 30.63239 | -95.96103 | 13615 ft | 329 kts | 154° |
| 2026-05-01 14:17 | 30.61232 | -95.94822 | 13108 ft | 330 kts | 153° |
| 2026-05-01 14:18 | 30.59201 | -95.93525 | 12289 ft | 337 kts | 153° |
| 2026-05-01 14:18 | 30.57153 | -95.92215 | 11733 ft | 331 kts | 153° |
| 2026-05-01 14:18 | 30.55172 | -95.90948 | 11512 ft | 320 kts | 153° |
| 2026-05-01 14:18 | 30.53270 | -95.89732 | 11512 ft | 305 kts | 153° |
| 2026-05-01 14:19 | 30.51451 | -95.88571 | 11427 ft | 293 kts | 153° |
| 2026-05-01 14:19 | 30.49696 | -95.87470 | 11388 ft | 280 kts | 157° |
| 2026-05-01 14:19 | 30.47845 | -95.86915 | 11108 ft | 274 kts | 175° |
| 2026-05-01 14:19 | 30.45954 | -95.86714 | 10856 ft | 271 kts | 175° |
| 2026-05-01 14:20 | 30.44090 | -95.86523 | 10489 ft | 268 kts | 175° |
| 2026-05-01 14:20 | 30.40355 | -95.86130 | 9549 ft | 268 kts | 175° |
| 2026-05-01 14:20 | 30.38499 | -95.85928 | 9043 ft | 268 kts | 175° |
| 2026-05-01 14:21 | 30.36625 | -95.85721 | 8410 ft | 274 kts | 175° |
| 2026-05-01 14:21 | 30.34716 | -95.85509 | 7848 ft | 277 kts | 174° |
| 2026-05-01 14:21 | 30.32782 | -95.85293 | 7339 ft | 282 kts | 174° |
| 2026-05-01 14:22 | 30.28867 | -95.84853 | 6727 ft | 284 kts | 174° |
| 2026-05-01 14:22 | 30.26921 | -95.84636 | 6633 ft | 276 kts | 174° |
| 2026-05-01 14:22 | 30.25045 | -95.84428 | 6597 ft | 265 kts | 172° |
| 2026-05-01 14:22 | 30.23235 | -95.84225 | 6521 ft | 257 kts | 172° |
| 2026-05-01 14:23 | 30.21485 | -95.84026 | 6436 ft | 249 kts | 172° |
| 2026-05-01 14:23 | 30.19799 | -95.83830 | 6373 ft | 239 kts | 173° |
| 2026-05-01 14:23 | 30.18157 | -95.83639 | 6201 ft | 236 kts | 172° |
| 2026-05-01 14:23 | 30.16519 | -95.83447 | 5933 ft | 237 kts | 171° |
| 2026-05-01 14:24 | 30.14865 | -95.83254 | 5928 ft | 241 kts | 172° |
| 2026-05-01 14:24 | 30.13199 | -95.83060 | 5853 ft | 239 kts | 172° |
| 2026-05-01 14:24 | 30.11565 | -95.82872 | 5769 ft | 235 kts | 172° |
| 2026-05-01 14:24 | 30.09952 | -95.82685 | 5453 ft | 234 kts | 172° |
| 2026-05-01 14:25 | 30.08315 | -95.82496 | 5019 ft | 239 kts | 172° |
| 2026-05-01 14:25 | 30.06655 | -95.82306 | 4663 ft | 239 kts | 173° |
| 2026-05-01 14:25 | 30.05015 | -95.82093 | 4338 ft | 236 kts | 165° |
| 2026-05-01 14:25 | 30.03621 | -95.81195 | 3906 ft | 231 kts | 129° |
| 2026-05-01 14:26 | 30.02618 | -95.79761 | 3536 ft | 229 kts | 122° |
| 2026-05-01 14:26 | 30.00832 | -95.76772 | 3005 ft | 221 kts | 107° |
| 2026-05-01 14:26 | 30.00701 | -95.75091 | 2953 ft | 211 kts | 78° |
| 2026-05-01 14:27 | 30.00812 | -95.73396 | 2926 ft | 212 kts | 86° |
| 2026-05-01 14:27 | 30.00803 | -95.71698 | 2913 ft | 213 kts | 88° |
| 2026-05-01 14:27 | 30.00786 | -95.69958 | 2920 ft | 220 kts | 86° |
| 2026-05-01 14:28 | 30.00766 | -95.66520 | 2886 ft | 206 kts | 86° |
| 2026-05-01 14:28 | 30.00763 | -95.64868 | 2884 ft | 209 kts | 87° |
| 2026-05-01 14:28 | 30.00759 | -95.63151 | 2933 ft | 217 kts | 88° |
| 2026-05-01 14:28 | 30.00754 | -95.61412 | 2990 ft | 215 kts | 85° |
| 2026-05-01 14:29 | 30.00750 | -95.59736 | 2978 ft | 209 kts | 87° |
| 2026-05-01 14:29 | 30.00746 | -95.58068 | 2999 ft | 209 kts | 87° |
| 2026-05-01 14:30 | 30.00735 | -95.53420 | 2981 ft | 180 kts | 85° |
| 2026-05-01 14:30 | 30.00736 | -95.51961 | 2806 ft | 184 kts | 86° |
| 2026-05-01 14:30 | 30.00734 | -95.50472 | 2575 ft | 186 kts | 87° |
| 2026-05-01 14:31 | 30.00726 | -95.47608 | 2095 ft | 167 kts | 83° |
| 2026-05-01 14:31 | 30.00723 | -95.46339 | 1907 ft | 148 kts | 82° |
| 2026-05-01 14:31 | 30.00723 | -95.45186 | 1710 ft | 142 kts | 80° |
| 2026-05-01 14:31 | 30.00727 | -95.44053 | 1528 ft | 142 kts | 83° |
| 2026-05-01 14:32 | 30.00726 | -95.42912 | 1321 ft | 141 kts | 84° |
| 2026-05-01 14:32 | 30.00723 | -95.41800 | 1119 ft | 137 kts | 84° |
| 2026-05-01 14:32 | 30.00723 | -95.40677 | 969 ft | 143 kts | 84° |
| 2026-05-01 14:32 | 30.00726 | -95.39508 | 813 ft | 148 kts | 84° |
| 2026-05-01 14:33 | 30.00713 | -95.38332 | 640 ft | 144 kts | 85° |
| 2026-05-01 14:33 | 30.00712 | -95.37182 | 400 ft | 145 kts | 81° |
| 2026-05-01 14:33 | 30.00717 | -95.36002 | 169 ft | 147 kts | 86° |
| 2026-05-01 14:33 | 30.00719 | -95.34885 | 105 ft | 117 kts | 90° |
| 2026-05-01 14:34 | 30.00718 | -95.34181 | 106 ft | 68 kts | 90° |
| 2026-05-01 14:34 | 30.00718 | -95.33755 | 105 ft | 29 kts | 90° |
| 2026-05-01 14:34 | 30.00700 | -95.33587 | 105 ft | 19 kts | 106° |
| 2026-05-01 14:34 | 30.00649 | -95.33453 | 105 ft | 18 kts | 119° |
| 2026-05-01 14:35 | 30.00590 | -95.33332 | 106 ft | 15 kts | 119° |
| 2026-05-01 14:35 | 30.00540 | -95.33229 | 106 ft | 14 kts | 116° |
| 2026-05-01 14:35 | 30.00498 | -95.33127 | 106 ft | 14 kts | 115° |
| 2026-05-01 14:35 | 30.00452 | -95.33035 | 106 ft | 13 kts | 129° |
| 2026-05-01 14:36 | 30.00394 | -95.32955 | 105 ft | 13 kts | 131° |
| 2026-05-01 14:36 | 30.00337 | -95.32878 | 105 ft | 12 kts | 130° |
| 2026-05-01 14:36 | 30.00282 | -95.32803 | 106 ft | 12 kts | 129° |
| 2026-05-01 14:36 | 30.00224 | -95.32723 | 105 ft | 13 kts | 130° |
| 2026-05-01 14:37 | 30.00166 | -95.32644 | 106 ft | 13 kts | 129° |
| 2026-05-01 14:37 | 30.00109 | -95.32569 | 106 ft | 12 kts | 139° |
| 2026-05-01 14:37 | 30.00031 | -95.32540 | 106 ft | 12 kts | 178° |
| 2026-05-01 14:37 | 29.99943 | -95.32539 | 106 ft | 14 kts | 180° |
| 2026-05-01 14:38 | 29.99848 | -95.32539 | 106 ft | 13 kts | 180° |
| 2026-05-01 14:38 | 29.99757 | -95.32538 | 106 ft | 13 kts | 180° |
| 2026-05-01 14:38 | 29.99668 | -95.32539 | 106 ft | 13 kts | 181° |
| 2026-05-01 14:38 | 29.99582 | -95.32540 | 106 ft | 12 kts | 180° |
| 2026-05-01 14:39 | 29.99498 | -95.32539 | 105 ft | 12 kts | 179° |
| 2026-05-01 14:39 | 29.99416 | -95.32538 | 105 ft | 12 kts | 180° |
| 2026-05-01 14:39 | 29.99336 | -95.32539 | 104 ft | 11 kts | 180° |
| 2026-05-01 14:39 | 29.99259 | -95.32539 | 105 ft | 11 kts | 179° |
| 2026-05-01 14:40 | 29.99190 | -95.32556 | 105 ft | 10 kts | 225° |
| 2026-05-01 14:40 | 29.99179 | -95.32630 | 106 ft | 10 kts | 269° |
| 2026-05-01 14:40 | 29.99179 | -95.32727 | 106 ft | 16 kts | 270° |
| 2026-05-01 14:40 | 29.99178 | -95.32871 | 106 ft | 20 kts | 269° |
| 2026-05-01 14:41 | 29.99178 | -95.33035 | 106 ft | 20 kts | 270° |
| 2026-05-01 14:41 | 29.99178 | -95.33196 | 106 ft | 20 kts | 270° |
| 2026-05-01 14:41 | 29.99178 | -95.33352 | 106 ft | 19 kts | 269° |
| 2026-05-01 14:41 | 29.99178 | -95.33503 | 106 ft | 19 kts | 270° |
| 2026-05-01 14:42 | 29.99178 | -95.33649 | 106 ft | 18 kts | 270° |
| 2026-05-01 14:42 | 29.99177 | -95.33790 | 106 ft | 17 kts | 270° |
| 2026-05-01 14:42 | 29.99177 | -95.33919 | 106 ft | 14 kts | 270° |
| 2026-05-01 14:42 | 29.99153 | -95.33978 | 105 ft | 8 kts | 206° |
| 2026-05-01 14:43 | 29.99094 | -95.33982 | 106 ft | 9 kts | 179° |
| 2026-05-01 14:43 | 29.99023 | -95.33981 | 106 ft | 10 kts | 180° |
| 2026-05-01 14:43 | 29.98958 | -95.33989 | 106 ft | 8 kts | 210° |
| 2026-05-01 14:43 | 29.98931 | -95.34033 | 106 ft | 7 kts | 242° |
| 2026-05-01 14:44 | 29.98911 | -95.34078 | 106 ft | 5 kts | 241° |
| 2026-05-01 14:44 | 29.98901 | -95.34098 | 104 ft | 1 kts | 240° |
| 2026-05-01 14:44 | 29.98900 | -95.34099 | 106 ft | 0 kts | 240° |